sensor_id;sensor_type;location;lat;lon;timestamp;temperature;humidity
60353;DHT22;46196;52.970;6.954;2023-02-22T00:00:59;8.90;99.90
60353;DHT22;46196;52.970;6.954;2023-02-22T01:36:58;8.20;99.90
60353;DHT22;46196;52.970;6.954;2023-02-22T01:41:50;8.70;99.90
60353;DHT22;46196;52.970;6.954;2023-02-22T02:51:20;8.70;99.90
60353;DHT22;46196;52.970;6.954;2023-02-22T03:36:59;8.60;99.90
60353;DHT22;46196;52.970;6.954;2023-02-22T03:49:50;8.60;99.90
60353;DHT22;46196;52.970;6.954;2023-02-22T04:29:08;8.50;99.90
60353;DHT22;46196;52.970;6.954;2023-02-22T05:54:49;6.60;99.90
60353;DHT22;46196;52.970;6.954;2023-02-22T06:48:41;8.00;99.90
60353;DHT22;46196;52.970;6.954;2023-02-22T07:00:53;8.00;99.90
60353;DHT22;46196;52.970;6.954;2023-02-22T10:39:44;8.00;99.90
60353;DHT22;46196;52.970;6.954;2023-02-22T10:42:13;8.50;99.90
60353;DHT22;46196;52.970;6.954;2023-02-22T10:44:40;8.50;99.90
60353;DHT22;46196;52.970;6.954;2023-02-22T10:47:08;8.50;99.90
60353;DHT22;46196;52.970;6.954;2023-02-22T10:49:49;8.50;99.90
60353;DHT22;46196;52.970;6.954;2023-02-22T10:54:49;8.60;99.90
60353;DHT22;46196;52.970;6.954;2023-02-22T10:57:28;8.60;99.90
60353;DHT22;46196;52.970;6.954;2023-02-22T10:59:54;8.60;99.90
60353;DHT22;46196;52.970;6.954;2023-02-22T11:02:32;8.60;99.90
60353;DHT22;46196;52.970;6.954;2023-02-22T11:05:01;8.70;99.90
60353;DHT22;46196;52.970;6.954;2023-02-22T11:07:35;8.60;99.90
60353;DHT22;46196;52.970;6.954;2023-02-22T11:10:04;8.70;99.90
60353;DHT22;46196;52.970;6.954;2023-02-22T11:12:35;8.70;99.90
60353;DHT22;46196;52.970;6.954;2023-02-22T11:17:53;8.80;99.90
60353;DHT22;46196;52.970;6.954;2023-02-22T11:20:25;8.80;99.90
60353;DHT22;46196;52.970;6.954;2023-02-22T11:22:59;8.80;99.90
60353;DHT22;46196;52.970;6.954;2023-02-22T11:25:32;8.80;99.90
60353;DHT22;46196;52.970;6.954;2023-02-22T11:28:34;8.90;99.90
60353;DHT22;46196;52.970;6.954;2023-02-22T11:31:23;8.60;99.90
60353;DHT22;46196;52.970;6.954;2023-02-22T11:33:58;8.90;99.90
60353;DHT22;46196;52.970;6.954;2023-02-22T11:39:04;8.90;99.90
60353;DHT22;46196;52.970;6.954;2023-02-22T11:41:35;8.90;99.90
60353;DHT22;46196;52.970;6.954;2023-02-22T11:44:31;8.90;99.90
60353;DHT22;46196;52.970;6.954;2023-02-22T11:46:59;8.90;99.90
60353;DHT22;46196;52.970;6.954;2023-02-22T11:49:36;8.90;99.90
60353;DHT22;46196;52.970;6.954;2023-02-22T11:52:21;8.90;99.90
60353;DHT22;46196;52.970;6.954;2023-02-22T11:55:01;8.90;99.90
60353;DHT22;46196;52.970;6.954;2023-02-22T12:01:04;8.90;99.90
60353;DHT22;46196;52.970;6.954;2023-02-22T12:09:38;9.10;99.90
60353;DHT22;46196;52.970;6.954;2023-02-22T12:12:27;9.20;99.90
60353;DHT22;46196;52.970;6.954;2023-02-22T12:17:53;9.40;99.90
60353;DHT22;46196;52.970;6.954;2023-02-22T12:20:39;9.50;99.90
60353;DHT22;46196;52.970;6.954;2023-02-22T12:23:28;9.50;99.90
60353;DHT22;46196;52.970;6.954;2023-02-22T12:26:02;9.50;99.90
60353;DHT22;46196;52.970;6.954;2023-02-22T12:28:37;9.50;99.90
60353;DHT22;46196;52.970;6.954;2023-02-22T12:31:17;9.50;99.90
60353;DHT22;46196;52.970;6.954;2023-02-22T12:36:49;9.40;99.90
60353;DHT22;46196;52.970;6.954;2023-02-22T12:41:55;9.40;99.90
60353;DHT22;46196;52.970;6.954;2023-02-22T12:44:36;9.40;99.90
60353;DHT22;46196;52.970;6.954;2023-02-22T12:47:04;9.50;99.90
60353;DHT22;46196;52.970;6.954;2023-02-22T12:54:46;9.50;99.90
60353;DHT22;46196;52.970;6.954;2023-02-22T13:00:26;9.50;99.90
60353;DHT22;46196;52.970;6.954;2023-02-22T13:03:18;9.50;99.90
60353;DHT22;46196;52.970;6.954;2023-02-22T13:05:50;9.60;99.90
60353;DHT22;46196;52.970;6.954;2023-02-22T13:08:32;9.60;99.90
60353;DHT22;46196;52.970;6.954;2023-02-22T13:11:09;9.50;99.90
60353;DHT22;46196;52.970;6.954;2023-02-22T13:16:25;9.60;99.90
60353;DHT22;46196;52.970;6.954;2023-02-22T13:24:15;9.60;99.90
60353;DHT22;46196;52.970;6.954;2023-02-22T13:26:52;9.60;99.90
60353;DHT22;46196;52.970;6.954;2023-02-22T13:40:54;9.60;99.90
60353;DHT22;46196;52.970;6.954;2023-02-22T13:51:22;9.80;99.90
60353;DHT22;46196;52.970;6.954;2023-02-22T13:54:06;9.80;99.90
60353;DHT22;46196;52.970;6.954;2023-02-22T13:56:33;9.90;99.90
60353;DHT22;46196;52.970;6.954;2023-02-22T13:59:02;9.90;99.90
60353;DHT22;46196;52.970;6.954;2023-02-22T14:01:46;9.90;99.90
60353;DHT22;46196;52.970;6.954;2023-02-22T14:09:48;10.10;99.90
60353;DHT22;46196;52.970;6.954;2023-02-22T14:17:44;10.30;99.90
60353;DHT22;46196;52.970;6.954;2023-02-22T14:22:47;10.40;99.90
60353;DHT22;46196;52.970;6.954;2023-02-22T14:25:35;10.40;99.90
60353;DHT22;46196;52.970;6.954;2023-02-22T14:28:05;10.50;99.90
60353;DHT22;46196;52.970;6.954;2023-02-22T14:30:36;10.50;99.90
60353;DHT22;46196;52.970;6.954;2023-02-22T14:36:07;10.50;99.90
60353;DHT22;46196;52.970;6.954;2023-02-22T14:38:33;10.50;99.90
60353;DHT22;46196;52.970;6.954;2023-02-22T14:40:59;10.40;99.90
60353;DHT22;46196;52.970;6.954;2023-02-22T14:43:27;10.40;99.90
60353;DHT22;46196;52.970;6.954;2023-02-22T14:45:59;10.40;99.90
60353;DHT22;46196;52.970;6.954;2023-02-22T14:48:35;10.40;99.90
60353;DHT22;46196;52.970;6.954;2023-02-22T14:51:21;10.40;99.90
60353;DHT22;46196;52.970;6.954;2023-02-22T14:56:43;10.40;99.90
60353;DHT22;46196;52.970;6.954;2023-02-22T14:59:22;10.40;99.90
60353;DHT22;46196;52.970;6.954;2023-02-22T15:02:23;10.40;99.90
60353;DHT22;46196;52.970;6.954;2023-02-22T15:04:54;10.40;99.90
60353;DHT22;46196;52.970;6.954;2023-02-22T15:07:25;10.40;99.90
60353;DHT22;46196;52.970;6.954;2023-02-22T15:10:25;10.40;99.90
60353;DHT22;46196;52.970;6.954;2023-02-22T15:13:24;9.70;99.90
60353;DHT22;46196;52.970;6.954;2023-02-22T15:15:59;11.60;99.90
60353;DHT22;46196;52.970;6.954;2023-02-22T15:21:09;10.50;99.90
60353;DHT22;46196;52.970;6.954;2023-02-22T15:23:58;10.50;99.90
60353;DHT22;46196;52.970;6.954;2023-02-22T15:26:39;10.40;99.90
60353;DHT22;46196;52.970;6.954;2023-02-22T15:29:19;10.40;99.90
60353;DHT22;46196;52.970;6.954;2023-02-22T15:31:46;10.40;99.90
60353;DHT22;46196;52.970;6.954;2023-02-22T15:36:46;10.30;99.90
60353;DHT22;46196;52.970;6.954;2023-02-22T15:44:40;10.20;99.90
60353;DHT22;46196;52.970;6.954;2023-02-22T15:47:11;10.20;99.90
60353;DHT22;46196;52.970;6.954;2023-02-22T15:49:40;10.20;99.90
60353;DHT22;46196;52.970;6.954;2023-02-22T15:54:43;10.10;99.90
60353;DHT22;46196;52.970;6.954;2023-02-22T15:57:12;10.10;99.90
60353;DHT22;46196;52.970;6.954;2023-02-22T15:59:44;10.00;99.90
60353;DHT22;46196;52.970;6.954;2023-02-22T16:04:46;10.00;99.90
60353;DHT22;46196;52.970;6.954;2023-02-22T16:07:13;10.00;99.90
60353;DHT22;46196;52.970;6.954;2023-02-22T16:09:49;10.00;99.90
60353;DHT22;46196;52.970;6.954;2023-02-22T16:14:47;9.90;99.90
60353;DHT22;46196;52.970;6.954;2023-02-22T16:22:47;9.90;99.90
60353;DHT22;46196;52.970;6.954;2023-02-22T16:27:50;9.90;99.90
60353;DHT22;46196;52.970;6.954;2023-02-22T16:32:44;9.80;99.90
60353;DHT22;46196;52.970;6.954;2023-02-22T16:35:10;9.80;99.90
60353;DHT22;46196;52.970;6.954;2023-02-22T16:37:47;9.80;99.90
60353;DHT22;46196;52.970;6.954;2023-02-22T16:40:36;9.80;99.90
60353;DHT22;46196;52.970;6.954;2023-02-22T16:43:10;9.70;99.90
60353;DHT22;46196;52.970;6.954;2023-02-22T16:45:37;9.70;99.90
60353;DHT22;46196;52.970;6.954;2023-02-22T16:48:19;9.60;99.90
60353;DHT22;46196;52.970;6.954;2023-02-22T16:50:46;9.60;99.90
60353;DHT22;46196;52.970;6.954;2023-02-22T16:53:12;9.60;99.90
60353;DHT22;46196;52.970;6.954;2023-02-22T16:55:42;9.60;99.90
60353;DHT22;46196;52.970;6.954;2023-02-22T16:58:16;9.60;99.90
60353;DHT22;46196;52.970;6.954;2023-02-22T17:00:43;9.50;99.90
60353;DHT22;46196;52.970;6.954;2023-02-22T17:03:14;9.50;99.90
60353;DHT22;46196;52.970;6.954;2023-02-22T17:05:40;9.50;99.90
60353;DHT22;46196;52.970;6.954;2023-02-22T17:08:05;12.20;99.90
60353;DHT22;46196;52.970;6.954;2023-02-22T17:10:32;9.40;99.90
60353;DHT22;46196;52.970;6.954;2023-02-22T17:12:59;9.40;99.90
60353;DHT22;46196;52.970;6.954;2023-02-22T17:17:53;9.40;99.90
60353;DHT22;46196;52.970;6.954;2023-02-22T17:20:19;9.40;99.90
60353;DHT22;46196;52.970;6.954;2023-02-22T17:23:02;9.40;99.90
60353;DHT22;46196;52.970;6.954;2023-02-22T17:25:32;9.40;99.90
60353;DHT22;46196;52.970;6.954;2023-02-22T17:27:59;9.40;99.90
60353;DHT22;46196;52.970;6.954;2023-02-22T17:30:25;9.30;99.90
60353;DHT22;46196;52.970;6.954;2023-02-22T17:32:53;9.30;99.90
60353;DHT22;46196;52.970;6.954;2023-02-22T17:35:29;9.30;99.90
60353;DHT22;46196;52.970;6.954;2023-02-22T17:37:55;9.30;99.90
60353;DHT22;46196;52.970;6.954;2023-02-22T17:40:22;9.30;99.90
60353;DHT22;46196;52.970;6.954;2023-02-22T17:42:48;9.30;99.90
60353;DHT22;46196;52.970;6.954;2023-02-22T17:45:20;9.30;99.90
60353;DHT22;46196;52.970;6.954;2023-02-22T17:47:51;9.30;99.90
60353;DHT22;46196;52.970;6.954;2023-02-22T17:50:19;9.30;99.90
60353;DHT22;46196;52.970;6.954;2023-02-22T17:52:46;9.30;99.90
60353;DHT22;46196;52.970;6.954;2023-02-22T17:55:12;9.20;99.90
60353;DHT22;46196;52.970;6.954;2023-02-22T17:57:38;9.20;99.90
60353;DHT22;46196;52.970;6.954;2023-02-22T18:00:10;9.20;99.90
60353;DHT22;46196;52.970;6.954;2023-02-22T18:02:41;9.20;99.90
60353;DHT22;46196;52.970;6.954;2023-02-22T18:05:09;9.20;99.90
60353;DHT22;46196;52.970;6.954;2023-02-22T18:07:35;9.20;99.90
60353;DHT22;46196;52.970;6.954;2023-02-22T18:10:03;9.20;99.90
60353;DHT22;46196;52.970;6.954;2023-02-22T18:12:30;9.20;99.90
60353;DHT22;46196;52.970;6.954;2023-02-22T18:14:57;9.20;99.90
60353;DHT22;46196;52.970;6.954;2023-02-22T18:17:23;9.90;99.90
60353;DHT22;46196;52.970;6.954;2023-02-22T18:19:49;9.20;99.90
60353;DHT22;46196;52.970;6.954;2023-02-22T18:22:15;9.20;99.90
60353;DHT22;46196;52.970;6.954;2023-02-22T18:24:41;9.20;99.90
60353;DHT22;46196;52.970;6.954;2023-02-22T18:27:07;9.20;99.90
60353;DHT22;46196;52.970;6.954;2023-02-22T18:29:33;9.20;99.90
60353;DHT22;46196;52.970;6.954;2023-02-22T18:31:59;9.20;99.90
60353;DHT22;46196;52.970;6.954;2023-02-22T18:34:24;9.20;99.90
60353;DHT22;46196;52.970;6.954;2023-02-22T18:36:51;9.10;99.90
60353;DHT22;46196;52.970;6.954;2023-02-22T18:39:17;9.20;99.90
60353;DHT22;46196;52.970;6.954;2023-02-22T18:41:43;9.20;99.90
60353;DHT22;46196;52.970;6.954;2023-02-22T18:44:16;9.10;99.90
60353;DHT22;46196;52.970;6.954;2023-02-22T18:46:42;8.10;99.90
60353;DHT22;46196;52.970;6.954;2023-02-22T18:49:11;9.10;99.90
60353;DHT22;46196;52.970;6.954;2023-02-22T18:51:38;9.10;99.90
60353;DHT22;46196;52.970;6.954;2023-02-22T18:54:08;9.10;99.90
60353;DHT22;46196;52.970;6.954;2023-02-22T18:56:36;9.10;99.90
60353;DHT22;46196;52.970;6.954;2023-02-22T18:59:04;9.10;99.90
60353;DHT22;46196;52.970;6.954;2023-02-22T19:01:32;9.10;99.90
60353;DHT22;46196;52.970;6.954;2023-02-22T19:04:06;9.10;99.90
60353;DHT22;46196;52.970;6.954;2023-02-22T19:06:35;9.10;99.90
60353;DHT22;46196;52.970;6.954;2023-02-22T19:09:01;9.10;99.90
60353;DHT22;46196;52.970;6.954;2023-02-22T19:11:27;9.10;99.90
60353;DHT22;46196;52.970;6.954;2023-02-22T19:13:55;9.00;99.90
60353;DHT22;46196;52.970;6.954;2023-02-22T19:16:24;9.00;99.90
60353;DHT22;46196;52.970;6.954;2023-02-22T19:18:51;9.00;99.90
60353;DHT22;46196;52.970;6.954;2023-02-22T19:21:21;9.00;99.90
60353;DHT22;46196;52.970;6.954;2023-02-22T19:23:49;9.00;99.90
60353;DHT22;46196;52.970;6.954;2023-02-22T19:26:20;9.00;99.90
60353;DHT22;46196;52.970;6.954;2023-02-22T19:28:49;9.00;99.90
60353;DHT22;46196;52.970;6.954;2023-02-22T19:31:20;9.00;99.90
60353;DHT22;46196;52.970;6.954;2023-02-22T19:33:47;9.00;99.90
60353;DHT22;46196;52.970;6.954;2023-02-22T19:36:15;8.10;99.90
60353;DHT22;46196;52.970;6.954;2023-02-22T19:38:42;9.00;99.90
60353;DHT22;46196;52.970;6.954;2023-02-22T19:41:26;9.00;99.90
60353;DHT22;46196;52.970;6.954;2023-02-22T19:43:53;9.00;99.90
60353;DHT22;46196;52.970;6.954;2023-02-22T19:46:22;9.00;99.90
60353;DHT22;46196;52.970;6.954;2023-02-22T19:48:50;9.00;99.90
60353;DHT22;46196;52.970;6.954;2023-02-22T19:51:17;9.00;99.90
60353;DHT22;46196;52.970;6.954;2023-02-22T19:53:45;9.00;99.90
60353;DHT22;46196;52.970;6.954;2023-02-22T19:56:16;9.00;99.90
60353;DHT22;46196;52.970;6.954;2023-02-22T19:58:44;9.00;99.90
60353;DHT22;46196;52.970;6.954;2023-02-22T20:01:18;9.00;99.90
60353;DHT22;46196;52.970;6.954;2023-02-22T20:03:52;9.00;99.90
60353;DHT22;46196;52.970;6.954;2023-02-22T20:06:33;8.90;99.90
60353;DHT22;46196;52.970;6.954;2023-02-22T20:09:00;8.90;99.90
60353;DHT22;46196;52.970;6.954;2023-02-22T20:11:26;8.90;99.90
60353;DHT22;46196;52.970;6.954;2023-02-22T20:13:53;8.90;99.90
60353;DHT22;46196;52.970;6.954;2023-02-22T20:16:20;8.90;99.90
60353;DHT22;46196;52.970;6.954;2023-02-22T20:18:47;8.90;99.90
60353;DHT22;46196;52.970;6.954;2023-02-22T20:21:29;8.90;99.90
60353;DHT22;46196;52.970;6.954;2023-02-22T20:23:56;8.90;99.90
60353;DHT22;46196;52.970;6.954;2023-02-22T20:26:25;8.90;99.90
60353;DHT22;46196;52.970;6.954;2023-02-22T20:28:51;8.90;99.90
60353;DHT22;46196;52.970;6.954;2023-02-22T20:31:19;8.90;99.90
60353;DHT22;46196;52.970;6.954;2023-02-22T20:33:47;8.90;99.90
60353;DHT22;46196;52.970;6.954;2023-02-22T20:36:15;8.80;99.90
60353;DHT22;46196;52.970;6.954;2023-02-22T20:38:42;8.90;99.90
60353;DHT22;46196;52.970;6.954;2023-02-22T20:41:12;8.90;99.90
60353;DHT22;46196;52.970;6.954;2023-02-22T20:43:38;8.80;99.90
60353;DHT22;46196;52.970;6.954;2023-02-22T20:46:05;8.90;99.90
60353;DHT22;46196;52.970;6.954;2023-02-22T20:48:32;8.90;99.90
60353;DHT22;46196;52.970;6.954;2023-02-22T20:51:05;8.90;99.90
60353;DHT22;46196;52.970;6.954;2023-02-22T20:53:31;8.90;99.90
60353;DHT22;46196;52.970;6.954;2023-02-22T20:55:57;8.80;99.90
60353;DHT22;46196;52.970;6.954;2023-02-22T20:58:24;8.80;99.90
60353;DHT22;46196;52.970;6.954;2023-02-22T21:00:50;8.80;99.90
60353;DHT22;46196;52.970;6.954;2023-02-22T21:03:16;8.80;99.90
60353;DHT22;46196;52.970;6.954;2023-02-22T21:05:45;8.80;99.90
60353;DHT22;46196;52.970;6.954;2023-02-22T21:08:12;8.80;99.90
60353;DHT22;46196;52.970;6.954;2023-02-22T21:10:46;8.80;99.90
60353;DHT22;46196;52.970;6.954;2023-02-22T21:13:12;8.70;99.90
60353;DHT22;46196;52.970;6.954;2023-02-22T21:15:39;8.70;99.90
60353;DHT22;46196;52.970;6.954;2023-02-22T21:18:13;8.70;99.90
60353;DHT22;46196;52.970;6.954;2023-02-22T21:20:39;8.70;99.90
60353;DHT22;46196;52.970;6.954;2023-02-22T21:23:08;8.60;99.90
60353;DHT22;46196;52.970;6.954;2023-02-22T21:25:36;8.60;99.90
60353;DHT22;46196;52.970;6.954;2023-02-22T21:52:42;8.60;99.90
60353;DHT22;46196;52.970;6.954;2023-02-22T22:05:03;6.90;99.90
60353;DHT22;46196;52.970;6.954;2023-02-22T22:29:36;8.10;99.90
60353;DHT22;46196;52.970;6.954;2023-02-22T22:54:08;7.80;99.90
60353;DHT22;46196;52.970;6.954;2023-02-22T23:01:34;8.80;99.90
